Horseneck Beach, Massachusetts
Current Conditions -  °F | °C
As of 7:53 PM on Sunday 23 Nov 2014 (Local Time) from KEWB Reporting Station
Clear Clear  
Wind Chill:   Ceiling: Unl
Heat Index:   Visibility: 10mi
Dew Point:   Wind: 7mph
Humidity: 93%   Direction: 210°SSW
Pressure: 30.16"   Gusts: NA
Location:  41.6022°N, 71.0828°W
Report Text: KEWB 240053Z 21006KT 10SM CLR 04/03 A3016 RMK AO2 SLP212 T00390028
Loading
Personal Weather Stations






























Interactive Weather Map New forecast layout! Learn more

10-Day Weather Forecast

Advertisements
Track Severe Weather on mobile